sensor_id;sensor_type;location;lat;lon;timestamp;P1;durP1;ratioP1;P2;durP2;ratioP2
39426;SDS011;25938;48.470;1.486;2023-04-30T00:00:24;10.68;;;7.70;;
39426;SDS011;25938;48.470;1.486;2023-04-30T00:02:50;11.13;;;7.97;;
39426;SDS011;25938;48.470;1.486;2023-04-30T00:05:16;10.52;;;7.45;;
39426;SDS011;25938;48.470;1.486;2023-04-30T00:07:42;9.80;;;7.55;;
39426;SDS011;25938;48.470;1.486;2023-04-30T00:10:09;8.95;;;7.22;;
39426;SDS011;25938;48.470;1.486;2023-04-30T00:12:35;9.93;;;7.43;;
39426;SDS011;25938;48.470;1.486;2023-04-30T00:15:01;8.88;;;7.15;;
39426;SDS011;25938;48.470;1.486;2023-04-30T00:17:27;8.07;;;6.53;;
39426;SDS011;25938;48.470;1.486;2023-04-30T00:19:53;8.88;;;7.43;;
39426;SDS011;25938;48.470;1.486;2023-04-30T00:22:20;11.77;;;8.27;;
39426;SDS011;25938;48.470;1.486;2023-04-30T00:24:46;9.95;;;6.68;;
39426;SDS011;25938;48.470;1.486;2023-04-30T00:27:12;10.70;;;7.32;;
39426;SDS011;25938;48.470;1.486;2023-04-30T00:29:38;9.07;;;7.50;;
39426;SDS011;25938;48.470;1.486;2023-04-30T00:32:05;10.80;;;7.68;;
39426;SDS011;25938;48.470;1.486;2023-04-30T00:34:31;8.63;;;7.53;;
39426;SDS011;25938;48.470;1.486;2023-04-30T00:36:57;11.93;;;8.55;;
39426;SDS011;25938;48.470;1.486;2023-04-30T00:39:23;11.82;;;9.05;;
39426;SDS011;25938;48.470;1.486;2023-04-30T00:41:49;11.18;;;8.20;;
39426;SDS011;25938;48.470;1.486;2023-04-30T00:44:15;10.55;;;7.95;;
39426;SDS011;25938;48.470;1.486;2023-04-30T00:46:41;8.63;;;7.25;;
39426;SDS011;25938;48.470;1.486;2023-04-30T00:49:07;11.82;;;7.47;;
39426;SDS011;25938;48.470;1.486;2023-04-30T00:51:33;9.35;;;7.85;;
39426;SDS011;25938;48.470;1.486;2023-04-30T00:54:00;9.65;;;8.18;;
39426;SDS011;25938;48.470;1.486;2023-04-30T00:56:27;9.70;;;7.57;;
39426;SDS011;25938;48.470;1.486;2023-04-30T00:58:54;11.60;;;8.68;;
39426;SDS011;25938;48.470;1.486;2023-04-30T01:01:24;8.52;;;7.63;;
39426;SDS011;25938;48.470;1.486;2023-04-30T01:03:52;13.80;;;8.43;;
39426;SDS011;25938;48.470;1.486;2023-04-30T01:06:18;9.55;;;7.22;;
39426;SDS011;25938;48.470;1.486;2023-04-30T01:08:44;9.75;;;7.47;;
39426;SDS011;25938;48.470;1.486;2023-04-30T01:11:14;9.77;;;7.63;;
39426;SDS011;25938;48.470;1.486;2023-04-30T01:16:24;9.10;;;7.45;;
39426;SDS011;25938;48.470;1.486;2023-04-30T01:18:54;11.13;;;8.05;;
39426;SDS011;25938;48.470;1.486;2023-04-30T01:21:21;10.05;;;8.40;;
39426;SDS011;25938;48.470;1.486;2023-04-30T01:26:14;11.77;;;8.68;;
39426;SDS011;25938;48.470;1.486;2023-04-30T01:28:45;10.43;;;7.43;;
39426;SDS011;25938;48.470;1.486;2023-04-30T01:31:17;12.52;;;7.72;;
39426;SDS011;25938;48.470;1.486;2023-04-30T01:33:43;10.55;;;7.38;;
39426;SDS011;25938;48.470;1.486;2023-04-30T01:36:12;10.05;;;7.88;;
39426;SDS011;25938;48.470;1.486;2023-04-30T01:38:49;11.15;;;8.02;;
39426;SDS011;25938;48.470;1.486;2023-04-30T01:41:31;11.38;;;8.00;;
39426;SDS011;25938;48.470;1.486;2023-04-30T01:46:28;9.95;;;7.03;;
39426;SDS011;25938;48.470;1.486;2023-04-30T01:49:08;10.25;;;7.70;;
39426;SDS011;25938;48.470;1.486;2023-04-30T01:51:40;12.48;;;8.00;;
39426;SDS011;25938;48.470;1.486;2023-04-30T01:54:26;14.38;;;8.30;;
39426;SDS011;25938;48.470;1.486;2023-04-30T01:57:10;10.25;;;8.50;;
39426;SDS011;25938;48.470;1.486;2023-04-30T01:59:38;10.70;;;7.57;;
39426;SDS011;25938;48.470;1.486;2023-04-30T02:02:04;10.65;;;7.95;;
39426;SDS011;25938;48.470;1.486;2023-04-30T02:04:31;11.10;;;7.32;;
39426;SDS011;25938;48.470;1.486;2023-04-30T02:06:57;11.10;;;8.98;;
39426;SDS011;25938;48.470;1.486;2023-04-30T02:09:23;10.73;;;8.07;;
39426;SDS011;25938;48.470;1.486;2023-04-30T02:11:49;11.80;;;8.43;;
39426;SDS011;25938;48.470;1.486;2023-04-30T02:14:16;11.23;;;7.75;;
39426;SDS011;25938;48.470;1.486;2023-04-30T02:16:42;11.48;;;8.02;;
39426;SDS011;25938;48.470;1.486;2023-04-30T02:19:08;10.20;;;8.73;;
39426;SDS011;25938;48.470;1.486;2023-04-30T02:21:34;11.70;;;7.88;;
39426;SDS011;25938;48.470;1.486;2023-04-30T02:23:59;12.32;;;8.48;;
39426;SDS011;25938;48.470;1.486;2023-04-30T02:26:25;10.75;;;8.23;;
39426;SDS011;25938;48.470;1.486;2023-04-30T02:28:52;10.65;;;7.28;;
39426;SDS011;25938;48.470;1.486;2023-04-30T02:31:18;9.98;;;7.95;;
39426;SDS011;25938;48.470;1.486;2023-04-30T02:33:44;10.63;;;7.93;;
39426;SDS011;25938;48.470;1.486;2023-04-30T02:36:10;11.10;;;7.63;;
39426;SDS011;25938;48.470;1.486;2023-04-30T02:38:36;12.73;;;8.38;;
39426;SDS011;25938;48.470;1.486;2023-04-30T02:41:02;10.27;;;8.18;;
39426;SDS011;25938;48.470;1.486;2023-04-30T02:43:28;11.88;;;8.32;;
39426;SDS011;25938;48.470;1.486;2023-04-30T02:45:54;13.48;;;8.93;;
39426;SDS011;25938;48.470;1.486;2023-04-30T02:48:20;11.15;;;8.80;;
39426;SDS011;25938;48.470;1.486;2023-04-30T02:50:46;13.98;;;8.85;;
39426;SDS011;25938;48.470;1.486;2023-04-30T02:53:12;12.98;;;9.52;;
39426;SDS011;25938;48.470;1.486;2023-04-30T02:55:38;12.77;;;9.27;;
39426;SDS011;25938;48.470;1.486;2023-04-30T02:58:04;13.10;;;8.40;;
39426;SDS011;25938;48.470;1.486;2023-04-30T03:00:30;14.75;;;9.35;;
39426;SDS011;25938;48.470;1.486;2023-04-30T03:02:56;14.70;;;8.80;;
39426;SDS011;25938;48.470;1.486;2023-04-30T03:05:22;14.20;;;8.95;;
39426;SDS011;25938;48.470;1.486;2023-04-30T03:07:48;11.00;;;8.32;;
39426;SDS011;25938;48.470;1.486;2023-04-30T03:10:14;12.15;;;8.90;;
39426;SDS011;25938;48.470;1.486;2023-04-30T03:12:42;10.23;;;8.50;;
39426;SDS011;25938;48.470;1.486;2023-04-30T03:15:09;11.23;;;8.25;;
39426;SDS011;25938;48.470;1.486;2023-04-30T03:17:35;11.55;;;8.95;;
39426;SDS011;25938;48.470;1.486;2023-04-30T03:20:01;11.85;;;8.50;;
39426;SDS011;25938;48.470;1.486;2023-04-30T03:22:27;13.05;;;8.85;;
39426;SDS011;25938;48.470;1.486;2023-04-30T03:24:53;12.05;;;9.23;;
39426;SDS011;25938;48.470;1.486;2023-04-30T03:27:19;14.00;;;9.70;;
39426;SDS011;25938;48.470;1.486;2023-04-30T03:29:45;13.73;;;9.77;;
39426;SDS011;25938;48.470;1.486;2023-04-30T03:32:11;16.20;;;9.93;;
39426;SDS011;25938;48.470;1.486;2023-04-30T03:34:37;13.15;;;9.20;;
39426;SDS011;25938;48.470;1.486;2023-04-30T03:37:03;14.63;;;10.20;;
39426;SDS011;25938;48.470;1.486;2023-04-30T03:39:29;13.70;;;8.95;;
39426;SDS011;25938;48.470;1.486;2023-04-30T03:41:55;18.20;;;10.77;;
39426;SDS011;25938;48.470;1.486;2023-04-30T03:44:21;12.18;;;9.57;;
39426;SDS011;25938;48.470;1.486;2023-04-30T03:46:47;13.02;;;9.02;;
39426;SDS011;25938;48.470;1.486;2023-04-30T03:49:13;13.70;;;10.02;;
39426;SDS011;25938;48.470;1.486;2023-04-30T03:51:39;18.23;;;10.40;;
39426;SDS011;25938;48.470;1.486;2023-04-30T03:54:06;15.73;;;10.27;;
39426;SDS011;25938;48.470;1.486;2023-04-30T03:56:32;15.00;;;9.73;;
39426;SDS011;25938;48.470;1.486;2023-04-30T03:58:59;13.15;;;8.75;;
39426;SDS011;25938;48.470;1.486;2023-04-30T04:01:25;15.15;;;9.40;;
39426;SDS011;25938;48.470;1.486;2023-04-30T04:03:52;13.10;;;9.25;;
39426;SDS011;25938;48.470;1.486;2023-04-30T04:06:18;12.80;;;9.77;;
39426;SDS011;25938;48.470;1.486;2023-04-30T04:08:44;13.05;;;9.02;;
39426;SDS011;25938;48.470;1.486;2023-04-30T04:11:10;16.70;;;9.60;;
39426;SDS011;25938;48.470;1.486;2023-04-30T04:13:36;17.33;;;10.60;;
39426;SDS011;25938;48.470;1.486;2023-04-30T04:16:02;13.80;;;10.18;;
39426;SDS011;25938;48.470;1.486;2023-04-30T04:18:28;14.68;;;9.85;;
39426;SDS011;25938;48.470;1.486;2023-04-30T04:20:54;14.40;;;10.63;;
39426;SDS011;25938;48.470;1.486;2023-04-30T04:23:21;16.20;;;10.40;;
39426;SDS011;25938;48.470;1.486;2023-04-30T04:25:47;17.20;;;11.45;;
39426;SDS011;25938;48.470;1.486;2023-04-30T04:28:14;13.93;;;9.88;;
39426;SDS011;25938;48.470;1.486;2023-04-30T04:30:41;19.02;;;11.75;;
39426;SDS011;25938;48.470;1.486;2023-04-30T04:33:07;18.38;;;10.45;;
39426;SDS011;25938;48.470;1.486;2023-04-30T04:35:34;15.75;;;10.48;;
39426;SDS011;25938;48.470;1.486;2023-04-30T04:38:00;16.85;;;11.18;;
39426;SDS011;25938;48.470;1.486;2023-04-30T04:40:26;15.65;;;10.40;;
39426;SDS011;25938;48.470;1.486;2023-04-30T04:42:52;15.65;;;10.23;;
39426;SDS011;25938;48.470;1.486;2023-04-30T04:45:19;16.95;;;10.75;;
39426;SDS011;25938;48.470;1.486;2023-04-30T04:47:45;12.88;;;10.30;;
39426;SDS011;25938;48.470;1.486;2023-04-30T04:50:12;13.02;;;9.20;;
39426;SDS011;25938;48.470;1.486;2023-04-30T04:52:38;14.38;;;9.40;;
39426;SDS011;25938;48.470;1.486;2023-04-30T04:55:04;14.45;;;9.07;;
39426;SDS011;25938;48.470;1.486;2023-04-30T04:57:31;15.77;;;8.95;;
39426;SDS011;25938;48.470;1.486;2023-04-30T04:59:57;14.27;;;9.63;;
39426;SDS011;25938;48.470;1.486;2023-04-30T05:02:23;15.30;;;10.10;;
39426;SDS011;25938;48.470;1.486;2023-04-30T05:04:49;15.15;;;10.00;;
39426;SDS011;25938;48.470;1.486;2023-04-30T05:07:18;14.02;;;9.70;;
39426;SDS011;25938;48.470;1.486;2023-04-30T05:09:45;17.30;;;10.43;;
39426;SDS011;25938;48.470;1.486;2023-04-30T05:12:11;14.75;;;9.25;;
39426;SDS011;25938;48.470;1.486;2023-04-30T05:14:37;15.43;;;10.25;;
39426;SDS011;25938;48.470;1.486;2023-04-30T05:17:03;13.90;;;9.20;;
39426;SDS011;25938;48.470;1.486;2023-04-30T05:19:30;12.68;;;10.00;;
39426;SDS011;25938;48.470;1.486;2023-04-30T05:21:57;13.63;;;9.73;;
39426;SDS011;25938;48.470;1.486;2023-04-30T05:24:25;15.05;;;10.05;;
39426;SDS011;25938;48.470;1.486;2023-04-30T05:26:51;15.80;;;10.18;;
39426;SDS011;25938;48.470;1.486;2023-04-30T05:29:17;13.20;;;9.23;;
39426;SDS011;25938;48.470;1.486;2023-04-30T05:31:43;12.65;;;9.20;;
39426;SDS011;25938;48.470;1.486;2023-04-30T05:34:09;15.40;;;10.20;;
39426;SDS011;25938;48.470;1.486;2023-04-30T05:36:35;14.80;;;10.95;;
39426;SDS011;25938;48.470;1.486;2023-04-30T05:39:01;14.35;;;10.40;;
39426;SDS011;25938;48.470;1.486;2023-04-30T05:41:28;13.90;;;9.82;;
39426;SDS011;25938;48.470;1.486;2023-04-30T05:43:54;13.55;;;10.32;;
39426;SDS011;25938;48.470;1.486;2023-04-30T05:46:20;16.88;;;10.18;;
39426;SDS011;25938;48.470;1.486;2023-04-30T05:48:46;15.43;;;9.98;;
39426;SDS011;25938;48.470;1.486;2023-04-30T05:51:12;16.83;;;11.45;;
39426;SDS011;25938;48.470;1.486;2023-04-30T05:53:38;15.13;;;9.75;;
39426;SDS011;25938;48.470;1.486;2023-04-30T05:56:04;15.80;;;9.55;;
39426;SDS011;25938;48.470;1.486;2023-04-30T05:58:30;14.45;;;10.82;;
39426;SDS011;25938;48.470;1.486;2023-04-30T06:00:57;15.30;;;10.32;;
39426;SDS011;25938;48.470;1.486;2023-04-30T06:03:23;14.57;;;9.27;;
39426;SDS011;25938;48.470;1.486;2023-04-30T06:05:49;14.60;;;9.52;;
39426;SDS011;25938;48.470;1.486;2023-04-30T06:08:15;17.13;;;10.10;;
39426;SDS011;25938;48.470;1.486;2023-04-30T06:10:41;15.50;;;9.50;;
39426;SDS011;25938;48.470;1.486;2023-04-30T06:13:07;16.90;;;10.95;;
39426;SDS011;25938;48.470;1.486;2023-04-30T06:15:33;19.27;;;11.70;;
39426;SDS011;25938;48.470;1.486;2023-04-30T06:18:00;15.68;;;10.00;;
39426;SDS011;25938;48.470;1.486;2023-04-30T06:20:26;16.83;;;10.35;;
39426;SDS011;25938;48.470;1.486;2023-04-30T06:22:52;14.85;;;10.05;;
39426;SDS011;25938;48.470;1.486;2023-04-30T06:25:18;17.27;;;9.75;;
39426;SDS011;25938;48.470;1.486;2023-04-30T06:27:45;13.98;;;10.35;;
39426;SDS011;25938;48.470;1.486;2023-04-30T06:30:11;13.20;;;10.20;;
39426;SDS011;25938;48.470;1.486;2023-04-30T06:32:37;15.60;;;10.40;;
39426;SDS011;25938;48.470;1.486;2023-04-30T06:35:03;17.05;;;10.35;;
39426;SDS011;25938;48.470;1.486;2023-04-30T06:37:29;15.88;;;10.07;;
39426;SDS011;25938;48.470;1.486;2023-04-30T06:40:01;15.73;;;9.93;;
39426;SDS011;25938;48.470;1.486;2023-04-30T06:42:27;14.45;;;10.27;;
39426;SDS011;25938;48.470;1.486;2023-04-30T06:44:58;13.90;;;10.10;;
39426;SDS011;25938;48.470;1.486;2023-04-30T06:47:25;12.80;;;9.10;;
39426;SDS011;25938;48.470;1.486;2023-04-30T06:49:51;14.60;;;10.07;;
39426;SDS011;25938;48.470;1.486;2023-04-30T06:52:17;15.90;;;10.48;;
39426;SDS011;25938;48.470;1.486;2023-04-30T06:54:43;15.75;;;10.43;;
39426;SDS011;25938;48.470;1.486;2023-04-30T06:57:09;14.55;;;10.23;;
39426;SDS011;25938;48.470;1.486;2023-04-30T06:59:36;14.80;;;9.88;;
39426;SDS011;25938;48.470;1.486;2023-04-30T07:02:03;18.10;;;11.38;;
39426;SDS011;25938;48.470;1.486;2023-04-30T07:04:29;16.90;;;10.68;;
39426;SDS011;25938;48.470;1.486;2023-04-30T07:06:55;15.35;;;10.32;;
39426;SDS011;25938;48.470;1.486;2023-04-30T07:09:21;13.90;;;9.50;;
39426;SDS011;25938;48.470;1.486;2023-04-30T07:11:47;15.48;;;10.40;;
39426;SDS011;25938;48.470;1.486;2023-04-30T07:14:14;16.40;;;10.48;;
39426;SDS011;25938;48.470;1.486;2023-04-30T07:16:40;15.07;;;10.52;;
39426;SDS011;25938;48.470;1.486;2023-04-30T07:19:06;15.52;;;10.70;;
39426;SDS011;25938;48.470;1.486;2023-04-30T07:21:32;15.25;;;9.75;;
39426;SDS011;25938;48.470;1.486;2023-04-30T07:23:58;17.90;;;10.98;;
39426;SDS011;25938;48.470;1.486;2023-04-30T07:26:24;17.58;;;10.65;;
39426;SDS011;25938;48.470;1.486;2023-04-30T07:28:50;14.40;;;10.25;;
39426;SDS011;25938;48.470;1.486;2023-04-30T07:31:16;16.85;;;11.32;;
39426;SDS011;25938;48.470;1.486;2023-04-30T07:33:43;18.50;;;11.23;;
39426;SDS011;25938;48.470;1.486;2023-04-30T07:36:09;15.80;;;9.82;;
39426;SDS011;25938;48.470;1.486;2023-04-30T07:38:35;14.73;;;10.63;;
39426;SDS011;25938;48.470;1.486;2023-04-30T07:41:01;13.07;;;9.95;;
39426;SDS011;25938;48.470;1.486;2023-04-30T07:43:28;12.13;;;8.40;;
39426;SDS011;25938;48.470;1.486;2023-04-30T07:45:55;14.18;;;10.30;;
39426;SDS011;25938;48.470;1.486;2023-04-30T07:48:21;15.73;;;10.43;;
39426;SDS011;25938;48.470;1.486;2023-04-30T07:50:47;16.50;;;10.40;;
39426;SDS011;25938;48.470;1.486;2023-04-30T07:53:14;16.35;;;10.75;;
39426;SDS011;25938;48.470;1.486;2023-04-30T07:55:40;14.05;;;9.63;;
39426;SDS011;25938;48.470;1.486;2023-04-30T07:58:06;13.93;;;8.88;;
39426;SDS011;25938;48.470;1.486;2023-04-30T08:00:32;11.25;;;8.27;;
39426;SDS011;25938;48.470;1.486;2023-04-30T08:02:58;11.82;;;8.27;;
39426;SDS011;25938;48.470;1.486;2023-04-30T08:05:25;11.88;;;8.55;;
39426;SDS011;25938;48.470;1.486;2023-04-30T08:07:51;12.75;;;8.65;;
39426;SDS011;25938;48.470;1.486;2023-04-30T08:10:17;12.32;;;8.38;;
39426;SDS011;25938;48.470;1.486;2023-04-30T08:12:43;12.80;;;7.55;;
39426;SDS011;25938;48.470;1.486;2023-04-30T08:15:09;15.35;;;8.75;;
39426;SDS011;25938;48.470;1.486;2023-04-30T08:17:35;12.02;;;8.63;;
39426;SDS011;25938;48.470;1.486;2023-04-30T08:20:02;8.05;;;4.30;;
39426;SDS011;25938;48.470;1.486;2023-04-30T08:22:29;9.50;;;6.07;;
39426;SDS011;25938;48.470;1.486;2023-04-30T08:24:55;8.80;;;5.60;;
39426;SDS011;25938;48.470;1.486;2023-04-30T08:27:21;6.03;;;3.47;;
39426;SDS011;25938;48.470;1.486;2023-04-30T08:29:48;8.63;;;5.03;;
39426;SDS011;25938;48.470;1.486;2023-04-30T08:32:14;10.13;;;6.93;;
39426;SDS011;25938;48.470;1.486;2023-04-30T08:34:40;10.15;;;5.65;;
39426;SDS011;25938;48.470;1.486;2023-04-30T08:37:07;8.80;;;6.00;;
39426;SDS011;25938;48.470;1.486;2023-04-30T08:39:33;10.15;;;6.68;;
39426;SDS011;25938;48.470;1.486;2023-04-30T08:42:00;7.45;;;5.63;;
39426;SDS011;25938;48.470;1.486;2023-04-30T08:44:28;8.48;;;6.43;;
39426;SDS011;25938;48.470;1.486;2023-04-30T08:46:55;11.57;;;7.10;;
39426;SDS011;25938;48.470;1.486;2023-04-30T08:49:22;8.98;;;5.28;;
39426;SDS011;25938;48.470;1.486;2023-04-30T08:51:49;10.73;;;6.03;;
39426;SDS011;25938;48.470;1.486;2023-04-30T08:54:15;7.45;;;4.32;;
39426;SDS011;25938;48.470;1.486;2023-04-30T08:56:43;9.35;;;5.25;;
39426;SDS011;25938;48.470;1.486;2023-04-30T08:59:09;7.93;;;5.68;;
39426;SDS011;25938;48.470;1.486;2023-04-30T09:01:36;7.38;;;5.00;;
39426;SDS011;25938;48.470;1.486;2023-04-30T09:04:03;7.13;;;5.22;;
39426;SDS011;25938;48.470;1.486;2023-04-30T09:06:29;7.90;;;4.97;;
39426;SDS011;25938;48.470;1.486;2023-04-30T09:08:55;6.85;;;4.63;;
39426;SDS011;25938;48.470;1.486;2023-04-30T09:13:48;5.78;;;4.70;;
39426;SDS011;25938;48.470;1.486;2023-04-30T09:16:16;4.90;;;3.20;;
39426;SDS011;25938;48.470;1.486;2023-04-30T09:18:42;4.57;;;3.47;;
39426;SDS011;25938;48.470;1.486;2023-04-30T09:21:08;6.50;;;3.95;;
39426;SDS011;25938;48.470;1.486;2023-04-30T09:23:34;4.45;;;3.05;;
39426;SDS011;25938;48.470;1.486;2023-04-30T09:26:00;3.90;;;3.13;;
39426;SDS011;25938;48.470;1.486;2023-04-30T09:28:26;6.18;;;4.18;;
39426;SDS011;25938;48.470;1.486;2023-04-30T09:30:55;6.45;;;4.07;;
39426;SDS011;25938;48.470;1.486;2023-04-30T09:33:21;12.15;;;5.07;;
39426;SDS011;25938;48.470;1.486;2023-04-30T09:35:47;3.30;;;2.63;;
39426;SDS011;25938;48.470;1.486;2023-04-30T09:38:29;6.90;;;4.88;;
39426;SDS011;25938;48.470;1.486;2023-04-30T09:40:59;4.47;;;4.00;;
39426;SDS011;25938;48.470;1.486;2023-04-30T09:43:28;5.60;;;4.03;;
39426;SDS011;25938;48.470;1.486;2023-04-30T09:45:56;4.75;;;3.83;;
39426;SDS011;25938;48.470;1.486;2023-04-30T09:48:22;3.28;;;2.65;;
39426;SDS011;25938;48.470;1.486;2023-04-30T09:50:49;7.38;;;3.22;;
39426;SDS011;25938;48.470;1.486;2023-04-30T09:53:15;4.10;;;3.70;;
39426;SDS011;25938;48.470;1.486;2023-04-30T09:55:43;6.22;;;3.47;;
39426;SDS011;25938;48.470;1.486;2023-04-30T09:58:09;6.40;;;4.10;;
39426;SDS011;25938;48.470;1.486;2023-04-30T10:00:36;4.50;;;3.50;;
39426;SDS011;25938;48.470;1.486;2023-04-30T10:03:10;3.80;;;3.05;;
39426;SDS011;25938;48.470;1.486;2023-04-30T10:05:37;4.88;;;3.42;;
39426;SDS011;25938;48.470;1.486;2023-04-30T10:08:06;4.50;;;3.40;;
39426;SDS011;25938;48.470;1.486;2023-04-30T10:10:35;4.00;;;2.70;;
39426;SDS011;25938;48.470;1.486;2023-04-30T10:13:03;3.78;;;3.10;;
39426;SDS011;25938;48.470;1.486;2023-04-30T10:15:31;2.58;;;2.25;;
39426;SDS011;25938;48.470;1.486;2023-04-30T10:17:59;3.92;;;2.92;;
39426;SDS011;25938;48.470;1.486;2023-04-30T10:20:26;4.15;;;2.83;;
39426;SDS011;25938;48.470;1.486;2023-04-30T10:22:53;2.55;;;2.00;;
39426;SDS011;25938;48.470;1.486;2023-04-30T10:25:20;4.60;;;3.28;;
39426;SDS011;25938;48.470;1.486;2023-04-30T10:27:47;4.15;;;2.65;;
39426;SDS011;25938;48.470;1.486;2023-04-30T10:30:13;2.88;;;2.10;;
39426;SDS011;25938;48.470;1.486;2023-04-30T10:32:46;3.83;;;2.80;;
39426;SDS011;25938;48.470;1.486;2023-04-30T10:35:18;4.75;;;3.42;;
39426;SDS011;25938;48.470;1.486;2023-04-30T10:37:46;2.17;;;1.90;;
39426;SDS011;25938;48.470;1.486;2023-04-30T10:40:13;4.85;;;2.58;;
39426;SDS011;25938;48.470;1.486;2023-04-30T10:42:48;4.13;;;2.63;;
39426;SDS011;25938;48.470;1.486;2023-04-30T10:45:15;3.55;;;2.50;;
39426;SDS011;25938;48.470;1.486;2023-04-30T10:47:41;3.08;;;2.13;;
39426;SDS011;25938;48.470;1.486;2023-04-30T10:50:09;4.57;;;2.25;;
39426;SDS011;25938;48.470;1.486;2023-04-30T10:52:36;3.40;;;2.35;;
39426;SDS011;25938;48.470;1.486;2023-04-30T10:55:08;4.60;;;2.60;;
39426;SDS011;25938;48.470;1.486;2023-04-30T10:57:41;3.33;;;2.57;;
39426;SDS011;25938;48.470;1.486;2023-04-30T11:02:40;2.88;;;2.63;;
39426;SDS011;25938;48.470;1.486;2023-04-30T11:07:56;2.63;;;2.25;;
39426;SDS011;25938;48.470;1.486;2023-04-30T11:10:23;3.90;;;1.95;;
39426;SDS011;25938;48.470;1.486;2023-04-30T11:12:53;4.70;;;2.28;;
39426;SDS011;25938;48.470;1.486;2023-04-30T11:15:26;2.95;;;2.65;;
39426;SDS011;25938;48.470;1.486;2023-04-30T11:17:55;4.70;;;3.03;;
39426;SDS011;25938;48.470;1.486;2023-04-30T11:20:23;2.58;;;1.98;;
39426;SDS011;25938;48.470;1.486;2023-04-30T11:25:39;3.35;;;2.70;;
39426;SDS011;25938;48.470;1.486;2023-04-30T11:28:05;3.42;;;2.65;;
39426;SDS011;25938;48.470;1.486;2023-04-30T11:30:31;4.80;;;3.30;;
39426;SDS011;25938;48.470;1.486;2023-04-30T11:32:58;3.60;;;2.67;;
39426;SDS011;25938;48.470;1.486;2023-04-30T11:35:24;3.92;;;3.55;;
39426;SDS011;25938;48.470;1.486;2023-04-30T11:37:53;4.93;;;3.00;;
39426;SDS011;25938;48.470;1.486;2023-04-30T11:40:19;2.85;;;2.15;;
39426;SDS011;25938;48.470;1.486;2023-04-30T11:42:46;3.33;;;2.38;;
39426;SDS011;25938;48.470;1.486;2023-04-30T11:45:13;2.15;;;1.95;;
39426;SDS011;25938;48.470;1.486;2023-04-30T11:47:51;2.33;;;1.73;;
39426;SDS011;25938;48.470;1.486;2023-04-30T11:50:22;3.28;;;2.45;;
39426;SDS011;25938;48.470;1.486;2023-04-30T11:52:53;2.92;;;2.50;;
39426;SDS011;25938;48.470;1.486;2023-04-30T11:55:21;3.95;;;2.85;;
39426;SDS011;25938;48.470;1.486;2023-04-30T11:57:48;3.47;;;2.60;;
39426;SDS011;25938;48.470;1.486;2023-04-30T12:00:15;2.72;;;1.98;;
39426;SDS011;25938;48.470;1.486;2023-04-30T12:02:42;2.40;;;1.83;;
39426;SDS011;25938;48.470;1.486;2023-04-30T12:05:16;2.70;;;1.95;;
39426;SDS011;25938;48.470;1.486;2023-04-30T12:10:10;3.10;;;2.70;;
39426;SDS011;25938;48.470;1.486;2023-04-30T12:12:36;2.78;;;1.80;;
39426;SDS011;25938;48.470;1.486;2023-04-30T12:17:38;2.90;;;2.28;;
39426;SDS011;25938;48.470;1.486;2023-04-30T12:20:04;3.20;;;2.33;;
39426;SDS011;25938;48.470;1.486;2023-04-30T12:22:30;3.47;;;2.58;;
39426;SDS011;25938;48.470;1.486;2023-04-30T12:24:57;3.65;;;2.60;;
39426;SDS011;25938;48.470;1.486;2023-04-30T12:27:23;2.95;;;2.15;;
39426;SDS011;25938;48.470;1.486;2023-04-30T12:29:49;5.60;;;2.30;;
39426;SDS011;25938;48.470;1.486;2023-04-30T12:32:19;2.65;;;2.42;;
39426;SDS011;25938;48.470;1.486;2023-04-30T12:34:45;2.72;;;2.53;;
39426;SDS011;25938;48.470;1.486;2023-04-30T12:37:15;3.10;;;1.92;;
39426;SDS011;25938;48.470;1.486;2023-04-30T12:39:42;2.75;;;1.98;;
39426;SDS011;25938;48.470;1.486;2023-04-30T12:42:08;3.63;;;2.38;;
39426;SDS011;25938;48.470;1.486;2023-04-30T12:44:43;2.05;;;1.65;;
39426;SDS011;25938;48.470;1.486;2023-04-30T12:47:09;3.40;;;2.05;;
39426;SDS011;25938;48.470;1.486;2023-04-30T12:49:35;2.60;;;2.00;;
39426;SDS011;25938;48.470;1.486;2023-04-30T12:52:02;2.47;;;1.92;;
39426;SDS011;25938;48.470;1.486;2023-04-30T12:54:30;4.50;;;2.83;;
39426;SDS011;25938;48.470;1.486;2023-04-30T12:56:57;5.57;;;3.00;;
39426;SDS011;25938;48.470;1.486;2023-04-30T12:59:25;4.00;;;3.15;;
39426;SDS011;25938;48.470;1.486;2023-04-30T13:01:51;4.75;;;2.42;;
39426;SDS011;25938;48.470;1.486;2023-04-30T13:04:18;4.50;;;2.67;;
39426;SDS011;25938;48.470;1.486;2023-04-30T13:06:44;2.38;;;2.17;;
39426;SDS011;25938;48.470;1.486;2023-04-30T13:09:10;3.00;;;2.47;;
39426;SDS011;25938;48.470;1.486;2023-04-30T13:11:36;5.43;;;3.35;;
39426;SDS011;25938;48.470;1.486;2023-04-30T13:14:03;4.43;;;3.00;;
39426;SDS011;25938;48.470;1.486;2023-04-30T13:16:29;4.72;;;3.00;;
39426;SDS011;25938;48.470;1.486;2023-04-30T13:18:55;3.33;;;2.88;;
39426;SDS011;25938;48.470;1.486;2023-04-30T13:21:21;3.28;;;2.97;;
39426;SDS011;25938;48.470;1.486;2023-04-30T13:23:48;3.10;;;2.78;;
39426;SDS011;25938;48.470;1.486;2023-04-30T13:26:14;4.50;;;3.35;;
39426;SDS011;25938;48.470;1.486;2023-04-30T13:28:41;4.88;;;2.90;;
39426;SDS011;25938;48.470;1.486;2023-04-30T13:31:07;3.65;;;2.95;;
39426;SDS011;25938;48.470;1.486;2023-04-30T13:33:33;4.47;;;2.90;;
39426;SDS011;25938;48.470;1.486;2023-04-30T13:35:59;3.38;;;2.88;;
39426;SDS011;25938;48.470;1.486;2023-04-30T13:38:25;4.25;;;3.30;;
39426;SDS011;25938;48.470;1.486;2023-04-30T13:40:52;3.92;;;3.28;;
39426;SDS011;25938;48.470;1.486;2023-04-30T13:43:18;6.07;;;3.85;;
39426;SDS011;25938;48.470;1.486;2023-04-30T13:45:43;4.47;;;3.30;;
39426;SDS011;25938;48.470;1.486;2023-04-30T13:48:09;3.13;;;2.83;;
39426;SDS011;25938;48.470;1.486;2023-04-30T13:50:35;3.13;;;2.40;;
39426;SDS011;25938;48.470;1.486;2023-04-30T13:53:01;3.78;;;3.13;;
39426;SDS011;25938;48.470;1.486;2023-04-30T13:55:28;3.15;;;2.70;;
39426;SDS011;25938;48.470;1.486;2023-04-30T13:57:54;3.30;;;2.60;;
39426;SDS011;25938;48.470;1.486;2023-04-30T14:00:20;3.40;;;2.53;;
39426;SDS011;25938;48.470;1.486;2023-04-30T14:02:46;4.72;;;2.75;;
39426;SDS011;25938;48.470;1.486;2023-04-30T14:05:12;3.10;;;2.72;;
39426;SDS011;25938;48.470;1.486;2023-04-30T14:07:38;3.45;;;1.95;;
39426;SDS011;25938;48.470;1.486;2023-04-30T14:10:04;3.15;;;2.83;;
39426;SDS011;25938;48.470;1.486;2023-04-30T14:12:30;2.95;;;2.42;;
39426;SDS011;25938;48.470;1.486;2023-04-30T14:14:56;3.95;;;2.95;;
39426;SDS011;25938;48.470;1.486;2023-04-30T14:17:23;4.88;;;2.42;;
39426;SDS011;25938;48.470;1.486;2023-04-30T14:19:50;3.72;;;2.75;;
39426;SDS011;25938;48.470;1.486;2023-04-30T14:22:17;2.63;;;2.42;;
39426;SDS011;25938;48.470;1.486;2023-04-30T14:24:43;4.78;;;2.83;;
39426;SDS011;25938;48.470;1.486;2023-04-30T14:27:09;4.45;;;3.05;;
39426;SDS011;25938;48.470;1.486;2023-04-30T14:29:35;4.00;;;2.15;;
39426;SDS011;25938;48.470;1.486;2023-04-30T14:32:02;2.88;;;2.50;;
39426;SDS011;25938;48.470;1.486;2023-04-30T14:34:28;3.13;;;2.58;;
39426;SDS011;25938;48.470;1.486;2023-04-30T14:36:55;2.80;;;2.17;;
39426;SDS011;25938;48.470;1.486;2023-04-30T14:39:23;3.33;;;3.03;;
39426;SDS011;25938;48.470;1.486;2023-04-30T14:41:50;4.55;;;2.70;;
39426;SDS011;25938;48.470;1.486;2023-04-30T14:44:16;3.78;;;2.50;;
39426;SDS011;25938;48.470;1.486;2023-04-30T14:46:42;3.95;;;3.35;;
39426;SDS011;25938;48.470;1.486;2023-04-30T14:49:08;2.45;;;2.13;;
39426;SDS011;25938;48.470;1.486;2023-04-30T14:51:34;2.58;;;2.33;;
39426;SDS011;25938;48.470;1.486;2023-04-30T14:54:00;3.08;;;2.53;;
39426;SDS011;25938;48.470;1.486;2023-04-30T14:56:26;3.25;;;2.38;;
39426;SDS011;25938;48.470;1.486;2023-04-30T14:58:52;3.80;;;2.65;;